Delaware County Johnson Field
KMIE : now visible

Airfield :











YOU CAN JOIN US ON...

 
LOGIN :

Register | Disclaimer

   EN    FR    IT 

 









Legend :    VFR   Marginal VFR   IFR   Intensive IFR   Very Intensive IFR
Visi :
Ceiling :
>= 8 km
>= 3000ft
5 to 8 km
1000 to 3000 ft
1500m to 5 km
500 to 1000 ft
800 to 1500m
200 to 500 ft
< 800m
< 200 ft
Symbols :   Thunderstorms  Fog  Heavy snow  Heavy precipitations  Wind > 20 kt






- Airport Elevation : 937 ft
- IATA code : MIE


KMIE - Delaware County Johnson Field

CURRENT METAR :
  • 090053Z 00000KT 10SM CLR 26/18 A2992 RMK AO2 RAB14E36 SLP119 P0000 T02610183

EXPIRED METARs :
  • 082353Z 16003KT 10SM FEW120 27/21 A2990 RMK AO2 LTG DSNT SE AND S RAB40E53 TSE2257B2258E13 SLP114 P0000 60000 T02670206 10333 20261 58006
  • 082328Z 15006KT 10SM CLR 26/22 A2991 RMK AO2 LTG DSNT SE TSE2257B2258E13 T02610217
  • 082319Z 16006KT 10SM VCTS CLR 27/21 A2992 RMK AO2 LTG DSNT SE TSE2257B2258E13 T02720211
  • 082253Z 23008G18KT 10SM TS FEW048 28/21 A2992 RMK AO2 LTG DSNT SE TSB2156E23B42 PRESFR SLP119 TS T02780206
  • 082248Z 24012G18KT 10SM TS SCT048 28/21 A2993 RMK AO2 LTG DSNT SE TSB2156E23B42 TS

TAF N/A
KZID FIR / North America



MET'MAP, your aeronautical weather chart ! - Copyright ORBIFLY December 2007 - Disclaimer

ORBIFLY MET'MAP TEAM :

Programming & Development : Alexandra Zaïnal
Concept & original design : Baudouin d'Aumeries
Assistance for programming : Marc-Olivier Méhu
Technical & hardware support : Manuel Goepfert

Contact : metmap@orbifly.com




SOURCES & CREDITS :

   NOAA       Earth
Advisory